Time;durP1;ratioP1;P1;durP2;ratioP2;P2;SDS_P1;SDS_P2;PMS_P1;PMS_P2;Temp;Humidity;BMP_temperature;BMP_pressure;BME280_temperature;BME280_humidity;BME280_pressure;Samples;Min_cycle;Max_cycle;Signal;HPM_P1;HPM_P2
2022/06/14 00:03:13;;;;;;;4.27;2.73;;;;;;;23.02;54.19;100884.28;5027285;28;20402;-60
2022/06/14 00:05:38;;;;;;;8.33;2.63;;;;;;;23.02;53.90;100880.59;5027576;28;20894;-60
2022/06/14 00:08:04;;;;;;;4.93;2.60;;;;;;;23.01;54.23;100876.88;5028070;28;20329;-60
2022/06/14 00:10:30;;;;;;;4.47;2.60;;;;;;;23.02;53.99;100874.81;5039007;28;20179;-60
2022/06/14 00:12:55;;;;;;;3.80;2.33;;;;;;;23.01;54.08;100870.28;5049814;28;20573;-60
2022/06/14 00:15:21;;;;;;;3.70;2.50;;;;;;;23.00;54.09;100875.22;5050776;28;20187;-60
2022/06/14 00:17:46;;;;;;;6.10;2.90;;;;;;;23.00;54.08;100868.63;5062129;28;20190;-60
2022/06/14 00:20:12;;;;;;;5.03;2.70;;;;;;;23.00;54.08;100865.75;5070631;28;20179;-60
2022/06/14 00:22:37;;;;;;;5.13;2.67;;;;;;;22.99;54.04;100870.69;5070845;28;20229;-60
2022/06/14 00:25:03;;;;;;;5.17;2.37;;;;;;;23.00;53.94;100859.97;5045821;28;20180;-60
2022/06/14 00:27:29;;;;;;;5.63;3.10;;;;;;;22.98;53.79;100863.25;5050444;28;20206;-60
2022/06/14 00:29:54;;;;;;;5.23;3.00;;;;;;;22.98;53.87;100862.44;5048733;28;20448;-60
2022/06/14 00:32:20;;;;;;;3.63;2.47;;;;;;;22.99;54.03;100864.09;5050300;28;20578;-60
2022/06/14 00:34:45;;;;;;;4.10;2.80;;;;;;;22.98;53.73;100857.50;5050247;28;20709;-60
2022/06/14 00:37:16;;;;;;;4.93;2.70;;;;;;;22.98;53.78;100859.56;5050945;28;20638;-60
2022/06/14 00:39:41;;;;;;;4.43;2.87;;;;;;;22.97;53.79;100855.84;5050374;28;20675;-60
2022/06/14 00:42:17;;;;;;;5.80;2.83;;;;;;;22.97;53.86;100858.72;5049053;28;20506;-60
2022/06/14 00:44:42;;;;;;;5.90;3.00;;;;;;;22.98;53.94;100856.69;5034343;28;20222;-60
2022/06/14 00:47:11;;;;;;;3.83;2.70;;;;;;;22.97;53.62;100852.16;5028909;28;20407;-60
2022/06/14 00:49:47;;;;;;;6.27;2.70;;;;;;;22.97;53.69;100855.03;5011177;28;20267;-60
2022/06/14 00:52:18;;;;;;;7.53;2.90;;;;;;;22.96;53.66;100848.44;5027721;28;20418;-60
2022/06/14 00:54:45;;;;;;;5.87;2.70;;;;;;;22.96;53.80;100847.59;5027666;28;20477;-60
2022/06/14 00:57:19;;;;;;;2.93;2.07;;;;;;;22.96;53.89;100845.56;5029028;28;20407;-60
2022/06/14 00:59:50;;;;;;;4.43;2.93;;;;;;;22.95;53.43;100845.94;5031066;28;20694;-60
2022/06/14 01:02:26;;;;;;;6.30;2.73;;;;;;;22.95;53.38;100840.19;5033955;28;20766;-60
2022/06/14 01:04:52;;;;;;;5.83;3.10;;;;;;;22.95;53.96;100841.03;5039895;28;20479;-60
2022/06/14 01:07:28;;;;;;;6.40;2.93;;;;;;;22.95;53.61;100834.44;5052395;28;20442;-60
2022/06/14 01:09:56;;;;;;;4.93;2.90;;;;;;;22.94;53.49;100833.63;5051955;28;20170;-60
2022/06/14 01:12:24;;;;;;;5.10;2.90;;;;;;;22.95;53.74;100834.44;5051820;28;20813;-60
2022/06/14 01:14:52;;;;;;;5.03;2.73;;;;;;;22.94;53.87;100827.84;5050371;28;20414;-61
2022/06/14 01:17:18;;;;;;;6.23;3.40;;;;;;;22.93;53.89;100831.13;5059583;28;20500;-60
2022/06/14 01:19:43;;;;;;;7.40;3.40;;;;;;;22.93;53.61;100831.94;5057928;28;20473;-60
2022/06/14 01:22:08;;;;;;;5.93;3.13;;;;;;;22.93;53.77;100837.69;5032983;28;20176;-60
2022/06/14 01:24:34;;;;;;;6.77;3.10;;;;;;;22.92;53.55;100838.94;5038031;28;20629;-60
2022/06/14 01:27:00;;;;;;;5.23;3.00;;;;;;;22.91;53.56;100834.41;5052240;28;20582;-60
2022/06/14 01:29:25;;;;;;;4.97;2.63;;;;;;;22.91;53.74;100840.16;5053223;28;20170;-60
2022/06/14 01:31:51;;;;;;;6.40;2.90;;;;;;;22.90;53.51;100843.44;5049266;28;20219;-60
2022/06/14 01:34:16;;;;;;;4.47;2.87;;;;;;;22.86;52.23;100846.28;5035374;28;20169;-60
2022/06/14 01:36:42;;;;;;;13.87;4.10;;;;;;;22.70;50.88;100848.59;5044308;28;20184;-60
2022/06/14 01:39:13;;;;;;;6.27;3.10;;;;;;;22.53;51.14;100845.53;5038328;28;20207;-60
2022/06/14 01:41:57;;;;;;;8.03;3.60;;;;;;;22.61;50.99;100842.34;5014076;28;20199;-60
2022/06/14 01:45:05;;;;;;;13.60;4.20;;;;;;;22.62;51.42;100835.34;5040093;28;20764;-60
2022/06/14 01:47:47;;;;;;;12.20;3.83;;;;;;;22.63;51.60;100837.00;5039233;28;20877;-60
2022/06/14 01:53:33;;;;;;;8.27;3.30;;;;;;;22.72;51.14;100836.69;5044034;28;20525;-60
2022/06/14 01:56:03;;;;;;;10.70;3.77;;;;;;;22.75;51.49;100833.84;5035718;28;20434;-60
2022/06/14 01:58:36;;;;;;;9.17;3.53;;;;;;;22.73;52.00;100827.63;5042442;28;20455;-60
2022/06/14 02:01:15;;;;;;;10.63;4.10;;;;;;;22.65;50.43;100823.06;5042002;28;20418;-60
2022/06/14 02:06:38;;;;;;;16.90;4.17;;;;;;;22.52;51.14;100821.69;5048117;28;20445;-60
2022/06/14 02:09:12;;;;;;;10.70;3.90;;;;;;;22.61;51.52;100825.06;5050991;28;20476;-60
2022/06/14 02:11:37;;;;;;;9.67;3.03;;;;;;;22.66;51.22;100816.06;5040283;28;20449;-60
2022/06/14 02:14:11;;;;;;;7.10;2.67;;;;;;;22.71;51.38;100812.00;5049921;28;20434;-60
2022/06/14 02:16:47;;;;;;;7.90;3.00;;;;;;;22.74;51.46;100812.03;5049438;28;20179;-60
2022/06/14 02:19:19;;;;;;;5.57;3.20;;;;;;;22.75;51.37;100813.69;5033236;28;20471;-60
2022/06/14 02:21:47;;;;;;;13.80;3.83;;;;;;;22.77;51.53;100810.44;5032318;28;20399;-60
2022/06/14 02:24:26;;;;;;;7.57;3.47;;;;;;;22.76;51.54;100806.72;5029465;28;20495;-60
2022/06/14 02:27:26;;;;;;;7.80;3.30;;;;;;;22.77;52.23;100817.00;5030058;28;20414;-60
2022/06/14 02:29:56;;;;;;;8.23;3.07;;;;;;;22.76;51.71;100818.22;5029883;28;20489;-60
2022/06/14 02:32:24;;;;;;;6.80;3.10;;;;;;;22.76;52.05;100808.75;5031400;28;20429;-60
2022/06/14 02:34:55;;;;;;;7.67;3.57;;;;;;;22.75;52.04;100810.81;5030256;28;21009;-60
2022/06/14 02:37:31;;;;;;;8.17;3.13;;;;;;;22.75;52.13;100822.34;5030553;28;20400;-60
2022/06/14 02:40:00;;;;;;;8.13;3.10;;;;;;;22.75;52.01;100822.34;5028688;28;20953;-59
2022/06/14 02:42:37;;;;;;;6.60;3.03;;;;;;;22.74;52.26;100814.94;5030233;28;20414;-60
2022/06/14 02:45:23;;;;;;;11.70;3.40;;;;;;;22.75;52.66;100824.38;5044651;28;20418;-60
2022/06/14 02:48:11;;;;;;;6.50;3.27;;;;;;;22.75;52.13;100819.44;5032871;28;20418;-60
2022/06/14 02:50:48;;;;;;;6.60;2.73;;;;;;;22.74;52.24;100820.69;5033328;28;20398;-60
2022/06/14 02:53:27;;;;;;;9.00;3.33;;;;;;;22.73;52.25;100819.00;5051889;28;20405;-60
2022/06/14 02:55:57;;;;;;;5.60;3.20;;;;;;;22.73;52.49;100816.13;5030700;28;20399;-60
2022/06/14 02:58:22;;;;;;;7.30;3.07;;;;;;;22.73;52.18;100812.44;5014339;28;20981;-60
2022/06/14 03:01:12;;;;;;;9.07;3.37;;;;;;;22.72;52.31;100820.22;5040115;28;20414;-60
2022/06/14 03:03:45;;;;;;;5.97;2.90;;;;;;;22.72;52.15;100816.53;5052020;28;20503;-60
2022/06/14 03:06:19;;;;;;;7.33;3.00;;;;;;;22.72;52.53;100817.34;5034247;28;20498;-60
2022/06/14 03:09:00;;;;;;;7.13;3.30;;;;;;;22.71;52.37;100807.06;5051275;28;20486;-60
2022/06/14 03:11:35;;;;;;;5.30;3.30;;;;;;;22.71;52.52;100807.06;5050188;28;20985;-60
2022/06/14 03:14:18;;;;;;;6.30;2.77;;;;;;;22.72;52.01;100810.78;5051748;28;20419;-60
2022/06/14 03:17:02;;;;;;;5.97;3.17;;;;;;;22.71;52.54;100818.59;5054546;28;20498;-59
2022/06/14 03:19:40;;;;;;;7.73;2.90;;;;;;;22.71;52.63;100812.00;5069993;28;20469;-60
2022/06/14 03:22:17;;;;;;;4.83;2.73;;;;;;;22.70;52.79;100810.34;5049426;28;20414;-60
2022/06/14 03:25:30;;;;;;;5.50;2.80;;;;;;;22.71;52.94;100812.00;5039856;28;20438;-60
2022/06/14 03:28:06;;;;;;;7.50;2.80;;;;;;;22.70;52.64;100810.34;5029246;28;20438;-60
2022/06/14 03:31:02;;;;;;;4.17;2.77;;;;;;;22.70;52.52;100807.47;5012549;28;20415;-60
2022/06/14 03:33:45;;;;;;;10.00;3.13;;;;;;;22.69;52.29;100809.53;5019544;28;20470;-60
2022/06/14 03:36:10;;;;;;;4.40;2.60;;;;;;;22.69;52.94;100809.53;5028799;28;20419;-60
2022/06/14 03:39:08;;;;;;;6.03;2.90;;;;;;;22.69;52.54;100805.81;5031127;28;20458;-59
2022/06/14 03:41:34;;;;;;;6.80;2.90;;;;;;;22.70;52.64;100816.09;5030500;28;20250;-60
2022/06/14 03:44:00;;;;;;;6.57;2.80;;;;;;;22.69;52.90;100814.44;5030961;28;20836;-60
2022/06/14 03:46:37;;;;;;;5.23;3.33;;;;;;;22.69;52.87;100821.03;5030794;28;20180;-60
2022/06/14 03:49:14;;;;;;;7.93;3.27;;;;;;;22.69;52.83;100826.81;5030950;28;20503;-60
2022/06/14 03:52:04;;;;;;;5.00;2.73;;;;;;;22.69;52.42;100818.16;5029552;28;20423;-59
2022/06/14 03:54:51;;;;;;;6.63;2.67;;;;;;;22.69;53.19;100815.28;5030729;28;20419;-60
2022/06/14 03:57:32;;;;;;;6.00;2.90;;;;;;;22.68;52.59;100815.69;5029549;28;20450;-60
2022/06/14 04:00:25;;;;;;;5.83;3.17;;;;;;;22.69;53.10;100817.31;5029661;28;20969;-60
2022/06/14 04:02:57;;;;;;;4.90;2.53;;;;;;;22.67;52.75;100814.84;5029790;28;20418;-60
2022/06/14 04:05:54;;;;;;;4.10;2.80;;;;;;;22.68;52.77;100816.50;5029224;28;20407;-60
2022/06/14 04:08:44;;;;;;;7.80;3.03;;;;;;;22.67;53.12;100811.16;5027521;28;20467;-60
2022/06/14 04:11:31;;;;;;;6.60;2.80;;;;;;;22.67;52.63;100811.16;5028572;28;20938;-59
2022/06/14 04:14:24;;;;;;;6.67;3.30;;;;;;;22.66;53.20;100804.56;5045212;28;20808;-59
2022/06/14 04:16:52;;;;;;;3.87;2.90;;;;;;;22.67;53.11;100816.91;5049177;28;20500;-60
2022/06/14 04:19:40;;;;;;;5.43;3.00;;;;;;;22.67;52.78;100814.03;5029976;28;20458;-59
2022/06/14 04:22:29;;;;;;;7.80;3.50;;;;;;;22.66;53.06;100810.31;5029238;28;20797;-60
2022/06/14 04:24:58;;;;;;;6.53;3.00;;;;;;;22.66;52.61;100806.59;5029430;28;20937;-59
2022/06/14 04:27:49;;;;;;;5.87;2.93;;;;;;;22.66;53.22;100815.22;5013238;28;20458;-60
2022/06/14 04:30:30;;;;;;;4.83;2.80;;;;;;;22.65;53.12;100808.66;5030615;28;20433;-60
2022/06/14 04:33:00;;;;;;;8.80;3.10;;;;;;;22.66;52.96;100812.34;5030489;28;20917;-59
2022/06/14 04:35:38;;;;;;;4.17;2.60;;;;;;;22.65;53.24;100810.69;5015392;28;20411;-60
2022/06/14 04:38:08;;;;;;;5.70;2.83;;;;;;;22.66;53.20;100804.56;5034209;28;20987;-59
2022/06/14 04:40:36;;;;;;;5.80;3.00;;;;;;;22.69;53.41;100809.53;5034408;28;20565;-60
2022/06/14 04:43:08;;;;;;;4.17;2.40;;;;;;;22.73;53.06;100804.59;5016846;28;21007;-59
2022/06/14 04:45:47;;;;;;;6.23;2.70;;;;;;;22.75;53.31;100807.94;5032741;28;20418;-59
2022/06/14 04:48:18;;;;;;;5.60;2.50;;;;;;;22.77;53.00;100807.53;5053029;28;20489;-60
2022/06/14 04:50:56;;;;;;;6.20;2.60;;;;;;;22.77;53.23;100805.47;5052813;28;20908;-59
2022/06/14 04:53:23;;;;;;;5.10;2.27;;;;;;;22.77;52.57;100802.59;5054065;28;20421;-60
2022/06/14 04:55:54;;;;;;;8.30;2.80;;;;;;;22.79;53.56;100797.28;5016654;28;20957;-59
2022/06/14 04:58:22;;;;;;;4.37;2.43;;;;;;;22.80;53.16;100798.94;5034870;28;20812;-59
2022/06/14 05:00:58;;;;;;;5.40;2.73;;;;;;;22.83;52.85;100801.00;5052669;28;20784;-59
2022/06/14 05:03:24;;;;;;;5.13;2.67;;;;;;;22.83;53.22;100803.06;5036135;28;20410;-59
2022/06/14 05:05:50;;;;;;;4.87;2.70;;;;;;;22.83;52.79;100803.06;5053822;28;20786;-59
2022/06/14 05:08:26;;;;;;;7.83;3.00;;;;;;;22.83;52.81;100800.19;5052330;28;20219;-59
2022/06/14 05:11:14;;;;;;;4.57;2.70;;;;;;;22.81;52.52;100797.69;5052235;28;20414;-60
2022/06/14 05:14:01;;;;;;;5.43;2.70;;;;;;;22.82;52.73;100793.59;5051704;28;20453;-59
2022/06/14 05:16:33;;;;;;;4.60;2.83;;;;;;;22.84;52.50;100798.97;5053689;28;20424;-59
2022/06/14 05:19:09;;;;;;;5.57;2.57;;;;;;;22.85;52.42;100801.44;5072052;28;20445;-59
2022/06/14 05:21:51;;;;;;;4.77;2.50;;;;;;;22.86;52.19;100793.63;5073274;28;20517;-60
2022/06/14 05:24:17;;;;;;;5.90;2.90;;;;;;;22.88;53.09;100794.06;5057495;28;20945;-59
2022/06/14 05:26:53;;;;;;;4.17;2.63;;;;;;;22.90;52.82;100791.59;5032090;28;20411;-59
2022/06/14 05:29:40;;;;;;;3.83;2.10;;;;;;;22.91;52.82;100791.22;5052528;28;20658;-59
2022/06/14 05:32:15;;;;;;;4.40;2.43;;;;;;;22.92;52.41;100784.22;5036796;28;20407;-59
2022/06/14 05:35:01;;;;;;;3.60;2.30;;;;;;;22.92;52.39;100787.09;5033274;28;20418;-59
2022/06/14 05:37:49;;;;;;;4.53;2.57;;;;;;;22.92;52.61;100781.34;5032028;28;20469;-59
2022/06/14 05:40:24;;;;;;;7.07;3.07;;;;;;;22.93;52.26;100780.09;5031999;28;20926;-60
2022/06/14 05:43:10;;;;;;;4.00;2.53;;;;;;;22.92;52.35;100783.41;5031751;28;20768;-59
2022/06/14 05:45:41;;;;;;;5.37;2.70;;;;;;;22.92;52.27;100783.41;5031934;28;20419;-59
2022/06/14 05:48:10;;;;;;;4.27;2.70;;;;;;;22.90;52.18;100780.09;5015694;28;20431;-59
2022/06/14 05:50:39;;;;;;;5.90;3.10;;;;;;;22.90;52.55;100794.47;5031760;28;20422;-59
2022/06/14 05:53:14;;;;;;;4.60;2.20;;;;;;;22.90;52.83;100794.47;5031381;28;20419;-59
2022/06/14 05:55:44;;;;;;;4.27;2.53;;;;;;;22.92;52.58;100795.72;5033099;28;20906;-59
2022/06/14 05:58:32;;;;;;;5.80;2.30;;;;;;;22.93;52.77;100797.38;5031466;28;20455;-59
2022/06/14 06:00:59;;;;;;;7.67;2.67;;;;;;;22.94;52.40;100793.31;5033029;28;20418;-59
2022/06/14 06:03:30;;;;;;;6.97;2.90;;;;;;;22.96;52.30;100790.84;5031470;28;20438;-59
2022/06/14 06:06:24;;;;;;;5.93;2.63;;;;;;;22.98;51.79;100797.00;5030747;28;20465;-60
2022/06/14 06:08:55;;;;;;;6.03;2.90;;;;;;;22.98;52.10;100791.25;5032082;28;20471;-59
2022/06/14 06:11:24;;;;;;;5.33;2.50;;;;;;;23.00;52.25;100790.84;5015021;28;20941;-59
2022/06/14 06:14:03;;;;;;;6.23;3.43;;;;;;;22.99;52.39;100792.94;5032660;28;20471;-60
2022/06/14 06:17:08;;;;;;;5.67;2.47;;;;;;;23.02;52.26;100803.63;5054790;28;20421;-59
2022/06/14 06:19:39;;;;;;;6.40;2.17;;;;;;;23.01;52.08;100798.25;5072474;28;20441;-60
2022/06/14 06:22:11;;;;;;;4.93;2.70;;;;;;;22.99;51.94;100804.44;5059356;28;20434;-60
2022/06/14 06:24:46;;;;;;;5.67;2.67;;;;;;;22.97;52.27;100804.00;5039959;28;20479;-59
2022/06/14 06:27:12;;;;;;;3.80;2.03;;;;;;;22.94;52.18;100809.75;5050941;28;20460;-59
2022/06/14 06:29:49;;;;;;;6.50;3.10;;;;;;;22.95;52.43;100808.50;5046308;28;20501;-60
2022/06/14 06:32:15;;;;;;;7.70;3.20;;;;;;;22.96;52.54;100799.47;5033174;28;20239;-60
2022/06/14 06:34:41;;;;;;;11.43;3.40;;;;;;;23.10;53.21;100807.41;5049728;28;20432;-59
2022/06/14 06:37:26;;;;;;;16.93;6.37;;;;;;;23.17;52.94;100796.75;5035523;28;20826;-60
2022/06/14 06:39:53;;;;;;;16.87;5.27;;;;;;;23.09;52.40;100806.56;5049477;28;20214;-60
2022/06/14 06:42:33;;;;;;;11.23;4.37;;;;;;;23.00;51.89;100808.97;5050539;28;20430;-60
2022/06/14 06:45:20;;;;;;;16.40;4.23;;;;;;;23.00;50.92;100799.50;5046043;28;20769;-60
2022/06/14 06:47:52;;;;;;;11.33;4.13;;;;;;;23.06;51.87;100797.91;5034038;28;20831;-60
2022/06/14 06:50:34;;;;;;;11.13;3.90;;;;;;;23.05;51.12;100793.38;5030285;28;20423;-59
2022/06/14 06:53:19;;;;;;;11.87;3.27;;;;;;;23.01;51.27;100793.34;5030711;28;20419;-60
2022/06/14 06:56:04;;;;;;;10.37;3.30;;;;;;;23.00;50.90;100803.22;5049616;28;20430;-60
2022/06/14 06:58:36;;;;;;;7.10;2.73;;;;;;;22.94;50.53;100796.19;5048288;28;20474;-60
2022/06/14 07:01:19;;;;;;;10.33;3.90;;;;;;;22.96;50.40;100796.59;5049361;28;20436;-60
2022/06/14 07:03:50;;;;;;;7.60;2.83;;;;;;;22.97;50.01;100795.38;5020974;28;20423;-60
2022/06/14 07:06:21;;;;;;;5.87;3.00;;;;;;;22.97;50.18;100791.69;5030811;28;20458;-59
2022/06/14 07:08:56;;;;;;;7.10;2.70;;;;;;;23.01;50.97;100793.34;5028734;28;20455;-60
2022/06/14 07:11:34;;;;;;;14.17;3.90;;;;;;;23.00;51.05;100791.69;5028845;28;20398;-59
2022/06/14 07:14:04;;;;;;;7.53;3.17;;;;;;;23.02;51.33;100783.47;5028580;28;20407;-60
2022/06/14 07:16:32;;;;;;;5.20;2.90;;;;;;;23.00;51.71;100785.94;5033953;28;20465;-60
2022/06/14 07:19:22;;;;;;;9.80;3.33;;;;;;;23.00;51.42;100790.84;5043326;28;20470;-60
2022/06/14 07:22:03;;;;;;;8.57;3.90;;;;;;;22.98;51.18;100787.56;5028220;28;20445;-60
2022/06/14 07:24:34;;;;;;;10.73;3.33;;;;;;;23.04;51.14;100785.97;5020649;28;20446;-60
2022/06/14 07:27:07;;;;;;;8.50;2.93;;;;;;;23.04;50.43;100785.97;5038794;28;20921;-60
2022/06/14 07:29:40;;;;;;;10.30;2.87;;;;;;;22.98;51.29;100793.31;5009873;28;20407;-60
2022/06/14 07:32:06;;;;;;;12.37;3.30;;;;;;;22.95;51.08;100799.88;5027604;28;20861;-60
2022/06/14 07:34:31;;;;;;;7.93;3.40;;;;;;;22.90;51.46;100786.69;5031713;28;20989;-60
2022/06/14 07:36:59;;;;;;;11.10;3.07;;;;;;;22.92;51.50;100787.09;5039571;28;20630;-60
2022/06/14 07:39:55;;;;;;;12.47;3.83;;;;;;;22.89;51.26;100790.78;5049120;28;20535;-60
2022/06/14 07:42:25;;;;;;;6.97;3.10;;;;;;;22.85;50.92;100789.94;5047696;28;20441;-60
2022/06/14 07:44:52;;;;;;;10.23;3.43;;;;;;;22.83;51.22;100792.38;5048953;28;20414;-60
2022/06/14 07:47:48;;;;;;;18.60;3.90;;;;;;;22.83;51.57;100791.56;5049358;28;20936;-60
2022/06/14 07:50:17;;;;;;;9.30;3.20;;;;;;;22.79;50.89;100790.69;5013409;28;20425;-60
2022/06/14 07:52:56;;;;;;;13.83;3.30;;;;;;;22.79;51.06;100785.78;5030389;28;20431;-60
2022/06/14 07:55:24;;;;;;;15.27;3.27;;;;;;;22.81;51.46;100788.22;5027136;28;20949;-60
2022/06/14 07:57:57;;;;;;;7.30;2.90;;;;;;;22.81;51.77;100785.34;5022741;28;20483;-60
2022/06/14 08:04:04;;;;;;;12.23;4.07;;;;;;;22.78;51.50;100778.34;5026654;28;20498;-60
2022/06/14 08:06:38;;;;;;;8.60;3.07;;;;;;;22.78;51.86;100774.66;5041413;28;20548;-60
2022/06/14 08:09:21;;;;;;;11.80;3.60;;;;;;;22.78;51.31;100772.56;5047460;28;20965;-60
2022/06/14 08:11:57;;;;;;;11.90;3.83;;;;;;;22.79;51.17;100774.25;5045365;28;20438;-60
2022/06/14 08:14:59;;;;;;;13.20;3.90;;;;;;;22.82;51.81;100767.69;5038890;28;20952;-60
2022/06/14 08:17:33;;;;;;;7.83;3.20;;;;;;;22.85;51.16;100764.00;5053878;28;20558;-60
2022/06/14 08:20:03;;;;;;;12.03;3.33;;;;;;;22.86;51.05;100771.41;5028068;28;20477;-60
2022/06/14 08:22:38;;;;;;;6.33;3.10;;;;;;;22.88;51.55;100759.50;5034874;28;21016;-60
2022/06/14 08:25:07;;;;;;;5.83;2.80;;;;;;;22.90;51.35;100752.13;5033976;28;20935;-60
2022/06/14 08:27:35;;;;;;;12.80;2.93;;;;;;;22.90;51.94;100742.66;5051806;28;20891;-60
2022/06/14 08:30:04;;;;;;;9.90;3.30;;;;;;;22.90;51.99;100746.38;5051689;28;20772;-61
2022/06/14 08:32:42;;;;;;;6.80;3.30;;;;;;;22.93;51.99;100747.63;5051809;28;20913;-60
2022/06/14 08:35:22;;;;;;;6.30;3.20;;;;;;;22.91;51.44;100745.13;5053051;28;20440;-60
2022/06/14 08:37:58;;;;;;;7.17;3.20;;;;;;;22.92;51.90;100738.13;5051766;28;20414;-60
2022/06/14 08:40:45;;;;;;;6.47;3.10;;;;;;;22.93;51.81;100747.63;5051767;28;20413;-60
2022/06/14 08:43:19;;;;;;;8.33;2.93;;;;;;;22.93;51.90;100736.91;5051312;28;20442;-60
2022/06/14 08:46:23;;;;;;;4.53;3.17;;;;;;;22.93;52.02;100733.22;5051451;28;20426;-60
2022/06/14 08:49:16;;;;;;;6.20;2.90;;;;;;;22.92;51.69;100735.25;5052040;28;20430;-60
2022/06/14 08:52:05;;;;;;;10.13;3.30;;;;;;;22.92;52.34;100722.94;5052565;28;20414;-60
2022/06/14 08:54:33;;;;;;;5.93;3.73;;;;;;;22.92;52.26;100722.94;5043243;28;20787;-60
2022/06/14 08:57:23;;;;;;;4.80;2.83;;;;;;;22.92;52.45;100723.75;5036742;28;20739;-60
2022/06/14 08:59:58;;;;;;;6.23;3.00;;;;;;;22.94;51.98;100726.22;5041416;28;20454;-60
2022/06/14 09:02:54;;;;;;;5.13;3.53;;;;;;;22.93;51.70;100719.63;5054020;28;20923;-60
2022/06/14 09:05:44;;;;;;;9.30;3.50;;;;;;;22.94;51.71;100715.56;5052247;28;20410;-60
2022/06/14 09:08:34;;;;;;;9.20;3.13;;;;;;;22.96;51.73;100715.13;5051565;28;21051;-60
2022/06/14 09:11:14;;;;;;;7.73;3.50;;;;;;;22.96;51.77;100710.19;5051891;28;20433;-60
2022/06/14 09:14:07;;;;;;;6.53;3.00;;;;;;;22.95;52.02;100717.19;5051961;28;20830;-60
2022/06/14 09:17:10;;;;;;;6.50;2.80;;;;;;;22.95;52.29;100711.44;5054597;28;20467;-60
2022/06/14 09:19:58;;;;;;;4.70;2.87;;;;;;;22.95;52.53;100713.47;5073074;28;20484;-60
2022/06/14 09:22:42;;;;;;;5.30;3.13;;;;;;;22.95;52.30;100719.22;5073218;28;20455;-60
2022/06/14 09:25:07;;;;;;;6.53;3.30;;;;;;;22.95;51.64;100720.06;5044313;28;20434;-61
2022/06/14 09:28:13;;;;;;;11.23;3.27;;;;;;;22.95;52.28;100717.19;5033619;28;20829;-60
2022/06/14 09:31:17;;;;;;;7.27;3.20;;;;;;;22.94;52.40;100706.91;5037133;28;20163;-60
2022/06/14 09:34:10;;;;;;;5.97;3.40;;;;;;;22.95;52.20;100708.56;5033337;28;20455;-60
2022/06/14 09:37:06;;;;;;;9.90;3.53;;;;;;;22.94;51.71;100706.91;5042548;28;20505;-60
2022/06/14 09:40:01;;;;;;;7.27;3.37;;;;;;;22.96;51.82;100712.25;5049692;28;20540;-60
2022/06/14 09:42:45;;;;;;;7.27;3.50;;;;;;;22.97;52.45;100706.09;5048803;28;20876;-60
2022/06/14 09:45:31;;;;;;;8.50;3.17;;;;;;;22.98;51.70;100698.28;5050049;28;20487;-60
2022/06/14 09:48:21;;;;;;;6.67;3.00;;;;;;;22.97;51.48;100688.81;5051282;28;20945;-60
2022/06/14 09:50:50;;;;;;;8.23;4.07;;;;;;;22.98;52.20;100689.66;5051411;28;20563;-60
2022/06/14 09:53:49;;;;;;;6.67;3.53;;;;;;;22.99;51.91;100685.53;5052199;28;20441;-60
2022/06/14 09:56:26;;;;;;;10.10;3.40;;;;;;;22.99;51.63;100691.28;5052816;28;20429;-60
2022/06/14 09:58:59;;;;;;;10.73;3.73;;;;;;;22.99;52.10;100679.78;5052842;28;20686;-60
2022/06/14 10:01:33;;;;;;;6.97;3.30;;;;;;;22.98;51.86;100670.28;5052782;28;20475;-60
2022/06/14 10:03:59;;;;;;;8.07;3.37;;;;;;;23.00;52.30;100678.53;5051027;28;20423;-60
2022/06/14 10:07:02;;;;;;;6.50;3.30;;;;;;;22.99;52.38;100674.84;5031995;28;20446;-60
2022/06/14 10:09:30;;;;;;;9.10;3.70;;;;;;;23.00;52.16;100673.63;5031127;28;20638;-60
2022/06/14 10:12:07;;;;;;;5.70;2.90;;;;;;;23.00;52.10;100670.75;5031326;28;20778;-60
2022/06/14 10:15:00;;;;;;;10.10;3.20;;;;;;;23.01;51.55;100669.50;5037861;28;20426;-60
2022/06/14 10:17:44;;;;;;;5.43;3.00;;;;;;;23.02;52.44;100667.47;5050613;28;20414;-60
2022/06/14 10:20:34;;;;;;;4.73;3.20;;;;;;;23.01;51.59;100662.91;5037029;28;20459;-59
2022/06/14 10:23:06;;;;;;;8.20;3.30;;;;;;;23.02;51.85;100659.63;5032667;28;20418;-60
2022/06/14 10:29:21;;;;;;;6.20;3.30;;;;;;;23.02;51.70;100661.69;5006932;28;20774;-60
2022/06/14 10:32:22;;;;;;;5.60;3.17;;;;;;;23.01;51.92;100655.09;5030518;28;20423;-60
2022/06/14 10:35:10;;;;;;;5.67;3.50;;;;;;;23.04;51.96;100653.47;5037169;28;20422;-59
2022/06/14 10:37:54;;;;;;;9.23;3.40;;;;;;;23.02;51.98;100647.31;5030891;28;20501;-60
2022/06/14 10:40:22;;;;;;;6.90;3.60;;;;;;;23.02;52.09;100639.47;5032151;28;20439;-60
2022/06/14 10:42:58;;;;;;;7.50;2.93;;;;;;;23.03;51.72;100635.34;5032402;28;20419;-60
2022/06/14 10:45:30;;;;;;;10.73;3.20;;;;;;;23.02;51.55;100651.00;5046470;28;20403;-60
2022/06/14 10:48:14;;;;;;;7.83;3.17;;;;;;;23.02;52.08;100644.41;5031130;28;20408;-60
2022/06/14 10:50:48;;;;;;;6.30;2.73;;;;;;;23.03;51.97;100641.13;5047268;28;20419;-60
2022/06/14 10:53:55;;;;;;;9.50;3.77;;;;;;;23.04;52.25;100625.50;5047231;28;20489;-60
2022/06/14 10:57:01;;;;;;;14.90;3.10;;;;;;;23.04;52.52;100621.78;5030496;28;20887;-60
2022/06/14 10:59:59;;;;;;;7.93;3.73;;;;;;;23.04;52.28;100633.31;5047156;28;20544;-60
2022/06/14 11:02:55;;;;;;;6.40;3.63;;;;;;;23.04;52.53;100628.38;5050808;28;20434;-60
2022/06/14 11:05:29;;;;;;;9.43;3.80;;;;;;;23.05;52.03;100621.41;5039965;28;20929;-60
2022/06/14 11:08:16;;;;;;;6.20;3.57;;;;;;;23.05;52.17;100618.50;4773000;28;20509;-60
2022/06/14 11:11:12;;;;;;;6.53;3.27;;;;;;;23.05;52.42;100606.16;5031654;28;20589;-60
2022/06/14 11:13:53;;;;;;;6.90;3.60;;;;;;;23.07;52.18;100606.56;5031448;28;20419;-60
2022/06/14 11:16:39;;;;;;;5.80;3.37;;;;;;;23.08;52.55;100596.72;5032180;28;20430;-60
2022/06/14 11:19:41;;;;;;;9.00;3.40;;;;;;;23.07;52.08;100601.66;5054295;28;20544;-60
2022/06/14 11:22:39;;;;;;;7.67;3.07;;;;;;;23.07;52.21;100595.88;5069903;28;20507;-60
2022/06/14 11:25:17;;;;;;;6.43;3.27;;;;;;;23.07;52.13;100598.75;5068314;28;20436;-60
2022/06/14 11:27:56;;;;;;;7.23;3.30;;;;;;;23.09;52.51;100593.41;5068403;28;20555;-60
2022/06/14 11:30:53;;;;;;;7.27;3.70;;;;;;;23.08;52.44;100585.19;5069577;28;20424;-60
2022/06/14 11:33:24;;;;;;;8.70;3.40;;;;;;;23.08;52.62;100582.31;5071162;28;20822;-60
2022/06/14 11:36:08;;;;;;;8.93;3.53;;;;;;;23.10;52.09;100588.47;5039533;28;20434;-60
2022/06/14 11:38:53;;;;;;;9.50;3.50;;;;;;;23.09;52.45;100584.75;5031496;28;20827;-60
2022/06/14 11:41:20;;;;;;;6.87;3.73;;;;;;;23.08;52.33;100580.25;5047836;28;20475;-60
2022/06/14 11:44:16;;;;;;;6.97;3.43;;;;;;;23.08;52.43;100577.38;5031189;28;20984;-60
2022/06/14 11:47:18;;;;;;;7.73;3.90;;;;;;;23.09;52.15;100566.69;5030913;28;20907;-60
2022/06/14 11:49:56;;;;;;;11.67;4.60;;;;;;;23.09;52.31;100570.38;5031780;28;20411;-60
2022/06/14 11:52:40;;;;;;;6.37;3.47;;;;;;;23.10;52.45;100559.69;5031161;28;20409;-60
2022/06/14 11:55:37;;;;;;;12.87;4.10;;;;;;;23.10;52.54;100562.56;5031487;28;20407;-60
2022/06/14 11:58:12;;;;;;;8.97;3.70;;;;;;;23.10;52.70;100565.44;5029712;28;20430;-59
2022/06/14 12:00:50;;;;;;;6.33;3.17;;;;;;;23.10;52.33;100557.63;5029717;28;20419;-60
2022/06/14 12:03:50;;;;;;;6.87;3.67;;;;;;;23.09;52.76;100555.16;5030696;28;20414;-60
2022/06/14 12:06:21;;;;;;;8.30;3.80;;;;;;;23.10;52.70;100549.00;5029565;28;20447;-60
2022/06/14 12:09:31;;;;;;;7.30;3.40;;;;;;;23.12;52.30;100543.66;5030807;28;20474;-60
2022/06/14 12:12:22;;;;;;;7.13;3.27;;;;;;;23.11;52.71;100544.88;5029980;28;20426;-59
2022/06/14 12:14:50;;;;;;;7.57;3.50;;;;;;;23.11;53.07;100536.25;5031495;28;20926;-60
2022/06/14 12:17:21;;;;;;;7.13;3.80;;;;;;;23.12;52.53;100531.28;5049379;28;20432;-60
2022/06/14 12:19:53;;;;;;;8.20;3.50;;;;;;;23.14;52.80;100534.59;5047665;28;21003;-60
2022/06/14 12:22:26;;;;;;;9.90;4.20;;;;;;;23.13;52.67;100536.66;5036404;28;20425;-60
2022/06/14 12:27:39;;;;;;;7.50;4.10;;;;;;;23.12;53.13;100529.25;5035660;28;20397;-60
2022/06/14 12:30:04;;;;;;;7.83;3.87;;;;;;;23.15;52.88;100534.19;5049330;28;20835;-60
2022/06/14 12:32:32;;;;;;;6.63;3.60;;;;;;;23.13;52.89;100519.38;5050683;28;20430;-60